Time;durP1;ratioP1;P1;durP2;ratioP2;P2;SDS_P1;SDS_P2;PMS_P1;PMS_P2;Temp;Humidity;BMP_temperature;BMP_pressure;BME280_temperature;BME280_humidity;BME280_pressure;Samples;Min_cycle;Max_cycle;Signal;HPM_P1;HPM_P2
2023/04/10 00:00:36;;;;;;;6.13;3.57;;;12.00;85.00;;;12.24;nan;101271.84;4993319;28;20642;-66
2023/04/10 00:03:03;;;;;;;3.90;2.57;;;12.00;85.00;;;12.21;nan;101272.06;4993347;28;20739;-68
2023/04/10 00:05:31;;;;;;;5.17;3.10;;;12.00;85.60;;;12.18;nan;101274.06;4989707;28;20635;-67
2023/04/10 00:07:58;;;;;;;6.03;4.03;;;11.90;86.00;;;12.10;nan;101276.34;4990605;28;20644;-66
2023/04/10 00:10:28;;;;;;;6.70;4.10;;;11.80;86.80;;;12.00;nan;101281.38;4993632;28;21398;-69
2023/04/10 00:12:55;;;;;;;6.97;5.10;;;11.70;87.50;;;11.94;nan;101284.41;4993448;28;20662;-66
2023/04/10 00:15:23;;;;;;;3.53;3.13;;;11.70;88.20;;;11.86;nan;101284.03;4993838;28;21244;-67
2023/04/10 00:17:53;;;;;;;7.70;4.90;;;11.60;88.30;;;11.81;nan;101287.91;4976769;28;20614;-68
2023/04/10 00:20:22;;;;;;;3.30;2.70;;;11.60;88.90;;;11.68;nan;101293.13;4994121;28;20642;-67
2023/04/10 00:22:49;;;;;;;3.60;3.27;;;11.50;89.10;;;11.57;nan;101293.81;4992931;28;20696;-65
2023/04/10 00:25:16;;;;;;;5.90;4.47;;;11.30;89.50;;;11.48;nan;101285.72;4993948;28;20645;-68
2023/04/10 00:27:43;;;;;;;6.97;4.17;;;11.30;90.20;;;11.43;nan;101291.25;4992366;28;20648;-67
2023/04/10 00:30:10;;;;;;;5.93;4.33;;;11.20;90.20;;;11.36;nan;101289.13;5003581;28;20646;-65
2023/04/10 00:32:37;;;;;;;6.37;4.00;;;11.20;90.50;;;11.28;nan;101280.97;4993647;28;21078;-64
2023/04/10 00:35:06;;;;;;;3.23;2.90;;;11.10;90.70;;;11.21;nan;101279.66;4991807;28;20688;-67
2023/04/10 00:37:33;;;;;;;5.20;4.07;;;11.10;91.00;;;11.13;nan;101280.16;4991276;28;20634;-67
2023/04/10 00:40:00;;;;;;;4.13;3.73;;;11.00;91.30;;;11.07;nan;101280.56;4976160;28;20695;-67
2023/04/10 00:42:27;;;;;;;7.00;4.90;;;10.90;91.70;;;11.00;nan;101275.81;4995589;28;20693;-67
2023/04/10 00:44:54;;;;;;;4.10;3.70;;;10.80;92.10;;;10.95;nan;101276.09;5003483;28;20634;-68
2023/04/10 00:47:21;;;;;;;6.50;4.70;;;10.80;92.50;;;10.87;nan;101271.38;5000019;28;20642;-65
2023/04/10 00:49:49;;;;;;;4.47;3.67;;;10.70;92.70;;;10.83;nan;101269.91;4960364;28;20649;-65
2023/04/10 00:52:16;;;;;;;7.57;4.60;;;10.70;93.20;;;10.80;nan;101271.84;4992105;28;21321;-67
2023/04/10 00:54:43;;;;;;;4.37;3.70;;;10.70;93.70;;;10.74;nan;101262.63;4976002;28;21186;-65
2023/04/10 00:57:10;;;;;;;8.07;4.83;;;10.60;94.00;;;10.65;nan;101268.41;4991581;28;20632;-66
2023/04/10 00:59:38;;;;;;;4.80;3.63;;;10.50;94.70;;;10.58;nan;101259.31;4993723;28;20625;-66
2023/04/10 01:02:04;;;;;;;4.00;3.33;;;10.50;95.00;;;10.54;nan;101264.81;4974912;28;20725;-65
2023/04/10 01:04:33;;;;;;;4.10;3.50;;;10.40;95.20;;;10.48;nan;101268.63;4983993;28;20637;-68
2023/04/10 01:08:08;;;;;;;4.90;4.10;;;10.30;95.50;;;10.43;nan;101273.31;4990803;28;20634;-65
2023/04/10 01:10:35;;;;;;;3.90;3.50;;;10.30;96.00;;;10.41;nan;101275.16;4989961;28;20630;-66
2023/04/10 01:13:45;;;;;;;4.93;4.27;;;10.30;96.70;;;10.37;nan;101276.25;4992001;28;20876;-68
2023/04/10 01:16:30;;;;;;;9.60;6.07;;;10.20;97.30;;;10.31;nan;101281.84;4970212;28;20670;-65
2023/04/10 01:19:10;;;;;;;10.10;5.40;;;10.20;98.10;;;10.25;nan;101287.44;4990561;28;20626;-68
2023/04/10 01:21:38;;;;;;;6.90;5.20;;;10.10;98.80;;;10.16;nan;101282.78;4992117;28;20665;-65
2023/04/10 01:24:35;;;;;;;9.50;5.70;;;10.00;99.60;;;10.10;nan;101294.41;4974679;28;20618;-66
2023/04/10 01:27:27;;;;;;;9.97;5.70;;;10.00;99.90;;;10.06;nan;101289.44;4992685;28;21042;-69
2023/04/10 01:29:57;;;;;;;5.90;4.43;;;9.90;99.90;;;10.03;nan;101297.44;4993825;28;20680;-66
2023/04/10 01:32:24;;;;;;;9.80;5.73;;;9.90;99.90;;;9.98;nan;101304.72;4975974;28;20660;-66
2023/04/10 01:34:55;;;;;;;4.93;4.30;;;9.90;99.90;;;9.94;nan;101295.38;4991768;28;20646;-66
2023/04/10 01:37:25;;;;;;;10.77;6.17;;;9.90;99.90;;;9.85;nan;101290.72;4974318;28;21171;-66
2023/04/10 01:40:05;;;;;;;10.77;5.57;;;9.80;99.90;;;9.76;nan;101294.69;4974758;28;20622;-65
2023/04/10 01:42:47;;;;;;;6.17;5.40;;;9.60;99.90;;;9.66;nan;101287.50;4990910;28;20665;-66
2023/04/10 01:45:20;;;;;;;8.23;5.50;;;9.60;99.90;;;9.57;nan;101291.47;4974434;28;20626;-65
2023/04/10 01:47:47;;;;;;;7.10;4.80;;;9.50;99.90;;;9.51;nan;101289.22;4990835;28;21006;-66
2023/04/10 01:50:15;;;;;;;8.70;5.30;;;9.40;99.90;;;9.41;nan;101285.47;4990625;28;20653;-67
2023/04/10 01:52:44;;;;;;;6.53;4.83;;;9.30;99.90;;;9.33;nan;101285.88;5000097;22;20685;-67
2023/04/10 01:55:11;;;;;;;7.00;5.17;;;9.30;99.90;;;9.25;nan;101282.88;4978027;28;20714;-64
2023/04/10 01:57:38;;;;;;;5.43;3.47;;;9.20;99.90;;;9.16;nan;101278.19;5012106;28;20629;-66
2023/04/10 02:00:06;;;;;;;9.70;5.27;;;9.10;99.90;;;9.05;nan;101267.50;5011492;28;20638;-64
2023/04/10 02:02:33;;;;;;;7.47;5.43;;;9.00;99.90;;;8.99;nan;101264.41;5010088;28;20653;-67
2023/04/10 02:05:00;;;;;;;7.73;5.20;;;9.00;99.90;;;8.92;nan;101257.88;4993076;28;20646;-63
2023/04/10 02:07:40;;;;;;;5.67;4.57;;;8.90;99.90;;;8.86;nan;101253.84;5010984;28;20601;-64
2023/04/10 02:10:20;;;;;;;4.93;4.43;;;8.80;99.90;;;8.85;nan;101259.97;4992282;28;20647;-67
2023/04/10 02:13:00;;;;;;;8.80;5.33;;;8.70;99.90;;;8.88;nan;101251.97;4979406;28;21272;-64
2023/04/10 02:15:31;;;;;;;10.10;5.53;;;8.80;99.90;;;8.89;nan;101252.84;4992381;28;20672;-65
2023/04/10 02:18:00;;;;;;;6.27;4.50;;;8.80;99.90;;;8.92;nan;101261.28;4992175;28;20702;-66
2023/04/10 02:20:27;;;;;;;8.47;4.90;;;8.80;99.90;;;8.92;nan;101250.06;4973675;28;20639;-65
2023/04/10 02:22:55;;;;;;;7.23;4.07;;;8.80;99.90;;;8.91;nan;101248.38;4990008;28;20661;-64
2023/04/10 02:25:22;;;;;;;6.77;5.13;;;8.80;99.90;;;8.84;nan;101250.47;4971489;28;20641;-67
2023/04/10 02:27:49;;;;;;;8.90;5.40;;;8.80;99.90;;;8.81;nan;101261.06;4987104;28;21030;-64
2023/04/10 02:30:16;;;;;;;7.43;4.93;;;8.70;99.90;;;8.73;nan;101255.44;4991423;28;21182;-63
2023/04/10 02:32:43;;;;;;;14.07;8.67;;;8.70;99.90;;;8.70;nan;101247.81;4992290;28;20666;-64
2023/04/10 02:35:10;;;;;;;15.50;9.30;;;8.60;99.90;;;8.72;nan;101253.75;4992088;28;21015;-63
2023/04/10 02:37:37;;;;;;;11.50;6.80;;;8.60;99.90;;;8.71;nan;101256.47;4992116;28;20626;-67
2023/04/10 02:40:05;;;;;;;8.83;6.40;;;8.60;99.90;;;8.71;nan;101262.47;4975857;28;21042;-66
2023/04/10 02:42:32;;;;;;;13.77;7.90;;;8.60;99.90;;;8.75;nan;101256.22;4976051;28;20717;-65
2023/04/10 02:44:59;;;;;;;6.40;5.40;;;8.70;99.90;;;8.74;nan;101261.47;4990054;28;20627;-65
2023/04/10 02:47:26;;;;;;;8.40;5.27;;;8.70;99.90;;;8.73;nan;101268.44;4990539;28;21019;-67
2023/04/10 02:49:54;;;;;;;5.53;4.23;;;8.70;99.90;;;8.68;nan;101254.84;4993093;28;21209;-65
2023/04/10 02:52:21;;;;;;;7.87;4.30;;;8.60;99.90;;;8.62;nan;101252.59;4973215;28;20665;-66
2023/04/10 02:54:48;;;;;;;7.33;5.00;;;8.60;99.90;;;8.59;nan;101248.38;4991290;28;20688;-66
2023/04/10 02:57:15;;;;;;;7.37;4.93;;;8.50;99.90;;;8.58;nan;101246.69;4999717;28;21512;-66
2023/04/10 02:59:42;;;;;;;7.87;5.20;;;8.50;99.90;;;8.55;nan;101244.28;5010952;28;20616;-66
2023/04/10 03:02:10;;;;;;;6.27;4.47;;;8.50;99.90;;;8.52;nan;101239.22;4982710;28;21081;-67
2023/04/10 03:04:37;;;;;;;6.80;4.40;;;8.50;99.90;;;8.50;nan;101248.88;4995899;28;21035;-67
2023/04/10 03:07:04;;;;;;;5.60;4.17;;;8.50;99.90;;;8.48;nan;101248.13;4997861;28;20640;-65
2023/04/10 03:09:31;;;;;;;6.30;4.60;;;8.40;99.90;;;8.47;nan;101245.59;4988507;28;20641;-67
2023/04/10 03:11:58;;;;;;;4.97;3.60;;;8.40;99.90;;;8.45;nan;101239.66;4987457;28;20646;-65
2023/04/10 03:14:25;;;;;;;5.60;4.37;;;8.40;99.90;;;8.41;nan;101225.13;4988650;28;20633;-65
2023/04/10 03:16:53;;;;;;;6.10;3.70;;;8.40;99.90;;;8.39;nan;101222.59;4998140;28;20679;-65
2023/04/10 03:19:20;;;;;;;7.47;4.97;;;8.30;99.90;;;8.35;nan;101220.22;4996348;28;20688;-66
2023/04/10 03:21:46;;;;;;;4.00;3.53;;;8.30;99.90;;;8.36;nan;101216.72;4998495;28;20676;-65
2023/04/10 03:24:13;;;;;;;5.80;4.07;;;8.30;99.90;;;8.32;nan;101212.63;5000842;28;20629;-65
2023/04/10 03:26:40;;;;;;;6.83;4.77;;;8.30;99.90;;;8.31;nan;101209.16;4998839;28;20645;-65
2023/04/10 03:29:07;;;;;;;5.47;3.33;;;8.30;99.90;;;8.34;nan;101205.56;4990917;28;20697;-66
2023/04/10 03:31:34;;;;;;;5.13;3.70;;;8.30;99.90;;;8.28;nan;101204.16;4990826;28;20699;-65
2023/04/10 03:34:01;;;;;;;6.17;4.30;;;8.20;99.90;;;8.26;nan;101202.56;4990628;28;21287;-65
2023/04/10 03:36:28;;;;;;;7.60;4.73;;;8.20;99.90;;;8.24;nan;101201.75;4990560;28;20681;-65
2023/04/10 03:38:55;;;;;;;6.83;5.00;;;8.20;99.90;;;8.23;nan;101206.13;4985361;28;20622;-65
2023/04/10 03:41:23;;;;;;;6.27;4.57;;;8.20;99.90;;;8.22;nan;101207.03;4989711;28;20665;-66
2023/04/10 03:43:51;;;;;;;8.03;5.77;;;8.20;99.90;;;8.25;nan;101206.91;4991559;28;20654;-65
2023/04/10 03:46:18;;;;;;;8.53;5.53;;;8.20;99.90;;;8.23;nan;101206.13;4989717;28;20642;-66
2023/04/10 03:48:45;;;;;;;9.47;4.90;;;8.20;99.90;;;8.21;nan;101207.97;4973523;28;20630;-66
2023/04/10 03:51:12;;;;;;;8.20;5.93;;;8.20;99.90;;;8.23;nan;101200.06;4990421;28;20793;-65
2023/04/10 03:53:39;;;;;;;5.10;3.90;;;8.20;99.90;;;8.24;nan;101204.38;4996679;28;20679;-65
2023/04/10 03:56:07;;;;;;;9.73;6.30;;;8.20;99.90;;;8.20;nan;101206.25;5005347;28;20666;-65
2023/04/10 03:58:34;;;;;;;5.37;4.07;;;8.20;99.90;;;8.14;nan;101204.00;4994911;28;20626;-64
2023/04/10 04:01:01;;;;;;;8.60;5.50;;;8.10;99.90;;;8.12;nan;101207.59;4995082;28;20634;-66
2023/04/10 04:03:28;;;;;;;9.40;5.20;;;8.10;99.90;;;8.06;nan;101200.97;4994472;28;20656;-64
2023/04/10 04:05:55;;;;;;;8.83;4.70;;;8.00;99.90;;;8.01;nan;101196.94;4996196;28;20642;-65
2023/04/10 04:08:22;;;;;;;6.60;4.47;;;8.00;99.90;;;7.99;nan;101190.94;5006033;28;20664;-65
2023/04/10 04:10:49;;;;;;;9.80;5.83;;;7.90;99.90;;;7.93;nan;101193.88;4996473;28;20637;-65
2023/04/10 04:13:16;;;;;;;9.47;5.20;;;7.90;99.90;;;7.92;nan;101198.25;4990574;28;20665;-65
2023/04/10 04:15:43;;;;;;;8.23;5.20;;;7.90;99.90;;;7.94;nan;101203.38;4993288;28;20673;-65
2023/04/10 04:18:10;;;;;;;9.67;5.43;;;7.90;99.90;;;7.92;nan;101200.00;4994188;28;20671;-65
2023/04/10 04:20:37;;;;;;;8.10;5.40;;;7.90;99.90;;;7.93;nan;101209.47;5005026;28;20634;-65
2023/04/10 04:23:04;;;;;;;7.53;5.10;;;7.90;99.90;;;7.91;nan;101206.09;4994771;28;20673;-63
2023/04/10 04:25:31;;;;;;;5.77;4.43;;;7.90;99.90;;;7.89;nan;101206.19;5002712;28;20640;-66
2023/04/10 04:27:58;;;;;;;8.67;5.80;;;7.90;99.90;;;7.86;nan;101203.75;5003566;28;20638;-65
2023/04/10 04:30:25;;;;;;;7.37;4.10;;;7.80;99.90;;;7.83;nan;101212.56;4997741;28;20625;-64
2023/04/10 04:32:52;;;;;;;5.87;4.60;;;7.80;99.90;;;7.79;nan;101223.19;5006210;28;20658;-64
2023/04/10 04:35:19;;;;;;;5.60;4.43;;;7.70;99.90;;;7.74;nan;101225.16;4994165;28;20724;-66
2023/04/10 04:37:46;;;;;;;7.97;5.13;;;7.70;99.90;;;7.74;nan;101217.38;4998824;28;20720;-65
2023/04/10 04:40:13;;;;;;;7.70;5.03;;;7.70;99.90;;;7.79;nan;101220.59;4977519;28;20645;-65
2023/04/10 04:42:40;;;;;;;6.00;4.40;;;7.70;99.90;;;7.81;nan;101222.16;5004967;28;20673;-66
2023/04/10 04:45:08;;;;;;;6.27;4.80;;;7.80;99.90;;;7.75;nan;101219.88;4994228;28;21202;-65
2023/04/10 04:47:35;;;;;;;7.67;5.00;;;7.70;99.90;;;7.71;nan;101227.91;4993245;28;20704;-65
2023/04/10 04:50:02;;;;;;;7.83;5.00;;;7.70;99.90;;;7.73;nan;101241.69;4992390;28;21272;-66
2023/04/10 04:52:29;;;;;;;8.37;5.00;;;7.70;99.90;;;7.71;nan;101238.28;4991752;28;20678;-66
2023/04/10 04:54:56;;;;;;;6.13;4.70;;;7.70;99.90;;;7.70;nan;101241.81;4980680;28;20665;-67
2023/04/10 04:57:22;;;;;;;8.33;5.00;;;7.70;99.90;;;7.68;nan;101234.13;5006326;28;20677;-65
2023/04/10 04:59:49;;;;;;;6.37;4.80;;;7.70;99.90;;;7.70;nan;101240.06;5007218;28;21311;-65
2023/04/10 05:02:17;;;;;;;8.70;5.00;;;7.70;99.90;;;7.72;nan;101238.25;4993359;28;20658;-65
2023/04/10 05:04:44;;;;;;;9.33;5.20;;;7.70;99.90;;;7.78;nan;101224.94;5001699;28;20642;-65
2023/04/10 05:07:11;;;;;;;4.77;4.10;;;7.70;99.90;;;7.87;nan;101227.97;4999435;28;20640;-65
2023/04/10 05:09:38;;;;;;;5.77;3.67;;;7.80;99.90;;;7.95;nan;101225.81;4991484;28;20680;-65
2023/04/10 05:12:05;;;;;;;6.03;3.63;;;7.90;99.90;;;8.04;nan;101218.41;4993204;28;20760;-65
2023/04/10 05:14:32;;;;;;;6.50;4.67;;;8.00;99.90;;;8.08;nan;101219.06;4993687;28;20611;-65
2023/04/10 05:16:59;;;;;;;5.10;3.80;;;8.00;99.90;;;8.09;nan;101220.75;4995625;28;21236;-65
2023/04/10 05:19:28;;;;;;;5.33;4.00;;;8.00;99.90;;;8.11;nan;101226.72;4993022;28;20704;-65
2023/04/10 05:21:55;;;;;;;7.87;4.70;;;8.00;99.90;;;8.13;nan;101214.47;4992712;28;20617;-65
2023/04/10 05:24:22;;;;;;;7.67;4.50;;;8.10;99.90;;;8.21;nan;101220.97;4991963;28;20638;-65
2023/04/10 05:26:49;;;;;;;6.10;4.57;;;8.10;99.90;;;8.29;nan;101220.56;4993711;28;20622;-65
2023/04/10 05:29:15;;;;;;;7.20;4.47;;;8.20;99.90;;;8.41;nan;101225.13;4992380;28;21191;-65
2023/04/10 05:31:42;;;;;;;4.70;3.80;;;8.30;99.90;;;8.54;nan;101231.31;4993495;28;20637;-65
2023/04/10 05:34:09;;;;;;;3.47;3.20;;;8.40;99.90;;;8.64;nan;101229.09;4992597;28;20691;-64
2023/04/10 05:36:36;;;;;;;7.93;5.00;;;8.50;99.90;;;8.74;nan;101225.03;4992970;28;20661;-65
2023/04/10 05:39:03;;;;;;;8.23;5.40;;;8.60;99.90;;;8.85;nan;101230.50;4992530;28;20618;-66
2023/04/10 05:41:30;;;;;;;5.80;4.90;;;8.70;99.90;;;8.95;nan;101229.91;4985039;28;20724;-65
2023/04/10 05:43:57;;;;;;;4.60;3.90;;;8.90;99.90;;;9.05;nan;101231.06;4992594;28;21007;-65
2023/04/10 05:46:24;;;;;;;5.40;4.17;;;9.00;99.90;;;9.18;nan;101239.88;4991523;28;20660;-64
2023/04/10 05:48:51;;;;;;;7.90;5.60;;;9.10;99.90;;;9.29;nan;101236.66;4993027;28;20630;-65
2023/04/10 05:51:19;;;;;;;7.27;5.27;;;9.20;99.90;;;9.43;nan;101241.09;4994432;28;21071;-65
2023/04/10 05:53:45;;;;;;;7.00;4.93;;;9.30;99.90;;;9.64;nan;101235.47;4996989;28;20735;-65
2023/04/10 05:56:12;;;;;;;8.27;5.60;;;9.60;99.90;;;10.01;nan;101237.56;4991509;28;21303;-64
2023/04/10 05:58:39;;;;;;;11.00;6.30;;;9.90;99.90;;;10.46;nan;101243.56;4994231;28;20650;-65
2023/04/10 06:01:06;;;;;;;11.40;6.40;;;10.30;99.90;;;10.84;nan;101234.16;4991287;28;20637;-64
2023/04/10 06:03:33;;;;;;;9.37;5.87;;;10.80;99.90;;;11.31;nan;101236.31;4999539;28;20653;-65
2023/04/10 06:06:01;;;;;;;7.70;5.53;;;11.20;99.90;;;11.78;nan;101238.44;4999431;28;21220;-64
2023/04/10 06:08:28;;;;;;;10.53;6.60;;;11.60;99.90;;;12.21;nan;101232.81;5010617;28;21209;-66
2023/04/10 06:10:55;;;;;;;10.37;6.47;;;12.10;99.90;;;12.64;nan;101233.25;5004642;28;20788;-65
2023/04/10 06:13:23;;;;;;;12.33;7.60;;;12.50;99.90;;;13.01;nan;101229.66;5000636;28;20658;-65
2023/04/10 06:15:50;;;;;;;12.80;7.77;;;12.90;99.90;;;13.29;nan;101233.75;4991458;28;20629;-65
2023/04/10 06:18:17;;;;;;;11.80;7.70;;;13.20;99.90;;;13.67;nan;101238.78;4991565;28;20669;-65
2023/04/10 06:20:44;;;;;;;10.40;7.30;;;13.50;99.90;;;14.29;nan;101234.81;5003746;28;20633;-66
2023/04/10 06:23:12;;;;;;;11.40;7.10;;;14.00;99.90;;;14.87;nan;101230.22;4975157;28;20681;-66
2023/04/10 06:25:39;;;;;;;11.87;6.60;;;14.60;99.50;;;15.40;nan;101230.16;4973349;28;20623;-65
2023/04/10 06:28:06;;;;;;;10.07;7.10;;;15.20;97.90;;;15.97;nan;101227.09;5000867;28;20634;-64
2023/04/10 06:30:36;;;;;;;11.93;8.20;;;15.80;96.30;;;16.48;nan;101228.88;4991359;28;20642;-66
2023/04/10 06:33:03;;;;;;;12.40;8.20;;;16.40;94.80;;;17.11;nan;101231.13;4991218;28;21088;-65
2023/04/10 06:35:30;;;;;;;14.30;8.43;;;17.00;93.00;;;17.66;nan;101233.06;4994195;28;21237;-65
2023/04/10 06:37:57;;;;;;;11.40;7.97;;;17.50;91.10;;;17.93;nan;101232.31;4979690;28;21066;-66
2023/04/10 06:40:24;;;;;;;10.43;7.00;;;17.80;89.20;;;18.40;nan;101230.47;5004270;28;20858;-63
2023/04/10 06:42:51;;;;;;;10.97;7.80;;;18.20;86.60;;;19.07;nan;101227.47;4997929;28;20662;-63
2023/04/10 06:45:18;;;;;;;11.70;8.07;;;18.90;83.90;;;19.98;nan;101230.56;4996315;28;20995;-63
2023/04/10 06:47:44;;;;;;;13.50;8.20;;;19.70;79.30;;;20.49;nan;101221.72;5006013;28;21256;-63
2023/04/10 06:50:11;;;;;;;11.30;8.30;;;20.20;76.10;;;20.89;nan;101227.16;4987984;28;20638;-64
2023/04/10 06:52:38;;;;;;;11.77;7.90;;;20.70;74.20;;;21.39;nan;101235.06;4998838;28;20670;-64
2023/04/10 06:55:06;;;;;;;9.20;7.10;;;21.20;72.00;;;21.92;nan;101226.59;4992984;28;21311;-65
2023/04/10 06:57:33;;;;;;;12.93;8.70;;;21.80;70.00;;;22.27;nan;101226.16;5004241;28;20722;-65
2023/04/10 07:00:00;;;;;;;13.07;8.53;;;22.20;67.60;;;22.62;nan;101216.91;4994725;28;21234;-65
2023/04/10 07:02:27;;;;;;;14.07;8.93;;;22.70;65.80;;;23.17;nan;101215.91;4997597;28;20717;-61
2023/04/10 07:04:55;;;;;;;11.63;8.33;;;23.20;64.00;;;23.87;nan;101220.78;4990724;28;21181;-66
2023/04/10 07:07:22;;;;;;;11.53;8.93;;;23.80;62.40;;;24.41;nan;101221.38;5004192;28;20626;-65
2023/04/10 07:09:49;;;;;;;13.83;8.90;;;24.30;60.80;;;24.72;nan;101223.81;4991908;28;20645;-65
2023/04/10 07:12:16;;;;;;;9.67;7.23;;;24.80;59.30;;;24.94;nan;101219.34;4993191;28;20673;-66
2023/04/10 07:14:43;;;;;;;10.20;7.47;;;25.00;58.50;;;25.35;nan;101225.72;4990521;28;20645;-65
2023/04/10 07:17:10;;;;;;;9.20;7.40;;;25.40;57.40;;;25.81;nan;101221.59;4994578;28;20670;-66
2023/04/10 07:19:37;;;;;;;10.23;8.27;;;25.80;55.80;;;25.88;nan;101213.63;4991625;28;20638;-65
2023/04/10 07:22:04;;;;;;;11.60;8.77;;;26.00;55.30;;;25.83;nan;101216.09;5004256;28;20654;-65
2023/04/10 07:24:31;;;;;;;9.43;7.10;;;25.90;54.80;;;25.77;nan;101214.19;4990054;28;21209;-67
2023/04/10 07:27:00;;;;;;;11.10;8.50;;;26.00;54.50;;;25.76;nan;101210.69;4998929;28;20629;-66
2023/04/10 07:29:27;;;;;;;9.20;7.20;;;26.00;53.60;;;25.72;nan;101206.75;5002144;28;20625;-66
2023/04/10 07:31:54;;;;;;;11.30;8.43;;;26.00;53.70;;;25.38;nan;101202.13;4999415;28;20637;-63
2023/04/10 07:34:21;;;;;;;11.30;9.10;;;25.70;53.90;;;24.71;nan;101210.66;4993945;28;20630;-66
2023/04/10 07:36:48;;;;;;;11.00;8.00;;;25.10;54.40;;;24.46;nan;101202.16;4994679;28;20727;-66
2023/04/10 07:39:15;;;;;;;8.40;6.33;;;24.70;55.10;;;24.39;nan;101198.56;4997165;28;20642;-64
2023/04/10 07:41:42;;;;;;;10.17;7.13;;;24.50;54.40;;;24.42;nan;101199.03;4999204;28;20642;-62
2023/04/10 07:44:10;;;;;;;8.27;6.37;;;24.40;54.40;;;24.36;nan;101191.75;4992549;28;20661;-67
2023/04/10 07:46:37;;;;;;;9.03;6.80;;;24.30;54.30;;;24.32;nan;101189.69;4992593;28;20648;-66
2023/04/10 07:49:04;;;;;;;8.00;6.50;;;24.30;54.80;;;24.44;nan;101194.34;4993725;28;20638;-65
2023/04/10 07:51:33;;;;;;;10.40;8.00;;;24.60;54.70;;;24.65;nan;101202.41;4993164;28;20634;-66
2023/04/10 07:54:02;;;;;;;10.03;7.63;;;24.90;54.70;;;25.09;nan;101193.44;5037794;22;20688;-68
2023/04/10 07:56:32;;;;;;;9.10;6.93;;;25.30;54.10;;;25.35;nan;101196.34;5003453;28;20701;-68
2023/04/10 07:59:02;;;;;;;6.67;6.00;;;25.70;53.10;;;25.39;nan;101194.94;5016519;28;20636;-66
2023/04/10 08:01:29;;;;;;;9.30;7.07;;;25.90;52.00;;;25.60;nan;101186.91;5034124;28;21221;-67
2023/04/10 08:03:56;;;;;;;7.83;6.37;;;26.20;51.50;;;25.59;nan;101187.94;5033094;28;20660;-66
2023/04/10 08:06:23;;;;;;;6.67;5.30;;;26.20;51.20;;;25.51;nan;101188.09;5033394;28;20705;-66
2023/04/10 08:08:51;;;;;;;3.47;3.13;;;26.10;50.40;;;25.59;nan;101173.75;5032478;28;20659;-67
2023/04/10 08:11:24;;;;;;;4.57;3.53;;;26.20;48.40;;;24.61;nan;101177.09;5030635;28;21065;-67
2023/04/10 08:13:53;;;;;;;4.53;4.10;;;25.40;48.50;;;24.78;nan;101171.56;5026515;28;20668;-66
2023/04/10 08:16:25;;;;;;;5.60;4.40;;;25.30;48.80;;;24.87;nan;101171.25;5026208;28;20641;-65
2023/04/10 08:18:53;;;;;;;8.37;4.27;;;25.40;48.60;;;24.66;nan;101180.00;5029267;28;20664;-67
2023/04/10 08:21:21;;;;;;;5.10;4.40;;;25.20;48.10;;;25.37;nan;101170.25;5022515;28;21252;-67
2023/04/10 08:23:52;;;;;;;3.87;3.40;;;25.60;48.40;;;25.40;nan;101165.38;5019777;28;21445;-67
2023/04/10 08:26:20;;;;;;;4.20;3.80;;;25.90;47.60;;;25.54;nan;101162.81;5024102;28;20625;-67
2023/04/10 08:28:52;;;;;;;4.23;3.83;;;25.90;47.60;;;25.81;nan;101159.31;5026470;28;20636;-66
2023/04/10 08:31:21;;;;;;;4.60;4.10;;;26.10;47.40;;;26.74;nan;101159.56;5032821;28;20641;-65
2023/04/10 08:33:49;;;;;;;5.30;4.00;;;27.10;46.60;;;26.70;nan;101166.31;5031231;28;20668;-68
2023/04/10 08:36:16;;;;;;;4.87;4.43;;;27.20;45.80;;;26.31;nan;101161.66;5034043;28;20635;-66
2023/04/10 08:38:46;;;;;;;5.00;4.10;;;27.00;45.90;;;26.48;nan;101156.78;5029923;28;20659;-66
2023/04/10 08:41:16;;;;;;;4.50;4.00;;;26.80;46.10;;;27.13;nan;101164.94;5025337;28;20640;-65
2023/04/10 08:43:48;;;;;;;0.93;0.90;;;27.50;46.00;;;26.17;nan;101156.44;5022019;28;20657;-67
2023/04/10 08:46:19;;;;;;;6.17;4.30;;;27.10;45.20;;;25.96;nan;101165.38;5032607;28;20624;-65
2023/04/10 08:49:03;;;;;;;4.60;4.07;;;26.50;46.00;;;25.59;nan;101158.56;5026717;28;20641;-66
2023/04/10 08:51:42;;;;;;;4.17;3.77;;;26.10;46.40;;;26.35;nan;101154.03;5020140;28;21207;-66
2023/04/10 08:54:37;;;;;;;3.60;3.27;;;26.50;46.60;;;27.44;nan;101150.97;5025922;28;20667;-65
2023/04/10 08:57:06;;;;;;;4.97;4.50;;;27.50;45.50;;;27.06;nan;101147.25;5022242;28;20684;-66
2023/04/10 08:59:35;;;;;;;5.53;2.70;;;27.80;44.80;;;27.97;nan;101130.28;5026641;28;20629;-66
2023/04/10 09:02:02;;;;;;;2.67;1.83;;;28.20;44.90;;;28.49;nan;101140.78;5023351;28;20704;-66
2023/04/10 09:04:29;;;;;;;5.70;4.70;;;28.80;44.00;;;28.98;nan;101140.88;5029396;28;20637;-66
2023/04/10 09:06:56;;;;;;;4.47;4.07;;;29.30;43.90;;;29.01;nan;101136.94;5030343;28;20706;-66
2023/04/10 09:09:23;;;;;;;4.57;3.90;;;29.30;43.50;;;28.99;nan;101136.34;5031635;28;20644;-68
2023/04/10 09:11:55;;;;;;;4.63;4.17;;;29.40;43.50;;;28.01;nan;101121.59;5030947;28;20995;-66
2023/04/10 09:14:29;;;;;;;4.20;3.90;;;28.50;43.70;;;28.95;nan;101122.53;5031425;28;20653;-66
2023/04/10 09:17:17;;;;;;;3.93;3.53;;;28.90;44.10;;;29.24;nan;101113.00;5030905;28;20632;-66
2023/04/10 09:19:55;;;;;;;3.80;3.50;;;29.50;43.30;;;28.07;nan;101103.81;5016220;28;20627;-66
2023/04/10 09:22:33;;;;;;;4.40;3.80;;;28.90;42.90;;;26.71;nan;101109.06;5018580;28;20701;-65
2023/04/10 09:25:03;;;;;;;4.47;3.80;;;27.60;44.00;;;26.43;nan;101093.16;5024219;28;20632;-63
2023/04/10 09:27:36;;;;;;;6.27;4.60;;;26.90;44.70;;;27.36;nan;101103.78;5032716;28;20617;-63
2023/04/10 09:30:05;;;;;;;3.23;2.90;;;27.40;44.70;;;27.54;nan;101093.22;5032353;28;20658;-65
2023/04/10 09:32:43;;;;;;;3.87;3.40;;;27.60;44.30;;;27.55;nan;101097.56;5031686;28;20709;-65
2023/04/10 09:35:13;;;;;;;3.10;2.80;;;27.70;44.10;;;27.58;nan;101089.09;5030508;28;20628;-67
2023/04/10 09:37:42;;;;;;;3.20;2.90;;;27.90;43.60;;;27.14;nan;101078.22;5029827;28;20749;-66
2023/04/10 09:40:22;;;;;;;4.57;3.90;;;27.40;43.50;;;27.17;nan;101079.66;5009079;28;21326;-66
2023/04/10 09:42:50;;;;;;;3.93;3.60;;;27.30;44.20;;;26.90;nan;101073.47;5029415;28;20718;-66
2023/04/10 09:45:21;;;;;;;3.67;2.87;;;27.10;44.10;;;26.11;nan;101072.47;5031135;28;21199;-66
2023/04/10 09:48:06;;;;;;;3.83;3.07;;;26.40;44.20;;;25.62;nan;101061.13;5031521;28;20636;-66
2023/04/10 09:50:39;;;;;;;3.30;3.00;;;25.80;44.90;;;25.36;nan;101062.56;5026091;28;20644;-65
2023/04/10 09:53:15;;;;;;;3.83;3.50;;;25.50;44.90;;;25.48;nan;101043.38;5013330;28;20673;-66
2023/04/10 09:55:42;;;;;;;5.37;4.10;;;25.50;45.20;;;25.33;nan;101056.81;5031163;28;20693;-65
2023/04/10 09:58:10;;;;;;;3.70;2.90;;;25.50;45.20;;;26.26;nan;101053.63;5030896;28;20668;-66
2023/04/10 10:00:48;;;;;;;3.40;3.13;;;26.20;45.00;;;27.42;nan;101048.53;5031293;28;20636;-66
2023/04/10 10:03:21;;;;;;;5.47;3.73;;;27.30;44.30;;;27.67;nan;101044.94;5014496;28;20662;-66
2023/04/10 10:05:50;;;;;;;3.60;3.00;;;27.70;44.10;;;27.59;nan;101047.03;5030979;28;21061;-67
2023/04/10 10:08:17;;;;;;;3.83;3.40;;;27.90;43.90;;;27.25;nan;101050.81;5031919;28;20628;-66
2023/04/10 10:10:52;;;;;;;3.27;3.00;;;27.50;43.80;;;27.11;nan;101040.31;5029555;28;20648;-65
2023/04/10 10:13:31;;;;;;;3.90;3.33;;;27.20;43.90;;;27.46;nan;101033.66;5031101;28;20656;-66
2023/04/10 10:16:14;;;;;;;3.17;2.87;;;27.60;43.60;;;28.33;nan;101029.38;5026732;28;20632;-65
2023/04/10 10:18:50;;;;;;;3.80;3.40;;;28.30;43.20;;;28.78;nan;101035.47;5036055;28;20711;-66
2023/04/10 10:21:19;;;;;;;3.50;3.20;;;28.80;43.10;;;28.61;nan;101037.06;5017995;28;20693;-66
2023/04/10 10:23:53;;;;;;;3.80;3.37;;;28.60;43.30;;;28.04;nan;101023.78;5029897;28;21294;-65
2023/04/10 10:26:22;;;;;;;4.30;3.90;;;28.10;43.20;;;27.63;nan;101021.44;5029899;28;20691;-64
2023/04/10 10:28:53;;;;;;;3.40;3.10;;;27.30;44.20;;;27.28;nan;101020.91;5029620;28;20640;-66
2023/04/10 10:31:24;;;;;;;3.80;3.20;;;26.90;43.90;;;26.77;nan;101011.88;5030495;28;21196;-66
2023/04/10 10:33:52;;;;;;;5.30;2.30;;;26.30;44.50;;;26.08;nan;101014.88;5030627;28;20640;-69
2023/04/10 10:36:21;;;;;;;2.33;2.13;;;25.70;45.20;;;25.06;nan;101005.09;5030444;28;20644;-66
2023/04/10 10:39:49;;;;;;;3.10;2.50;;;24.70;45.80;;;23.86;nan;100994.47;5019763;28;20656;-65